createdAt,value
2022-08-07T00:00:27.720Z,11.21
2022-08-07T00:10:31.002Z,11.03
2022-08-07T00:20:35.463Z,10.84
2022-08-07T00:30:37.020Z,10.82
2022-08-07T00:40:39.859Z,10.75
2022-08-07T00:50:46.572Z,10.61
2022-08-07T01:00:53.496Z,10.50
2022-08-07T01:10:58.453Z,10.34
2022-08-07T01:21:17.761Z,10.25
2022-08-07T01:31:41.701Z,10.09
2022-08-07T01:42:01.504Z,9.95
2022-08-07T01:52:10.011Z,9.94
2022-08-07T02:03:12.286Z,9.76
2022-08-07T02:12:46.310Z,9.68
2022-08-07T02:22:59.869Z,9.54
2022-08-07T02:33:09.535Z,9.43
2022-08-07T02:43:15.309Z,9.37
2022-08-07T02:53:27.362Z,9.43
2022-08-07T03:03:49.239Z,9.45
2022-08-07T03:13:57.638Z,9.33
2022-08-07T03:24:20.083Z,9.19
2022-08-07T03:34:27.789Z,9.13
2022-08-07T03:44:35.271Z,8.97
2022-08-07T03:54:54.476Z,8.88
2022-08-07T04:04:57.940Z,8.81
2022-08-07T04:15:01.116Z,8.46
2022-08-07T04:25:08.779Z,8.64
2022-08-07T04:35:16.295Z,8.76
2022-08-07T04:45:23.335Z,8.96
2022-08-07T04:58:13.809Z,9.35
2022-08-07T05:06:28.793Z,9.65
2022-08-07T05:16:52.633Z,14.92
2022-08-07T05:26:58.733Z,16.27
2022-08-07T05:37:05.834Z,15.83
2022-08-07T05:47:18.804Z,19.86
2022-08-07T05:57:26.543Z,21.29
2022-08-07T06:08:13.468Z,22.44
2022-08-07T06:17:57.683Z,23.03
2022-08-07T06:28:09.331Z,23.89
2022-08-07T06:38:20.005Z,24.31
2022-08-07T06:48:25.070Z,23.53
2022-08-07T06:58:29.626Z,24.64
2022-08-07T07:08:39.666Z,24.23
2022-08-07T07:18:51.862Z,23.76
2022-08-07T07:29:39.250Z,24.60
2022-08-07T07:39:26.333Z,24.96
2022-08-07T07:50:36.040Z,24.51
2022-08-07T08:00:11.851Z,25.90
2022-08-07T08:10:35.505Z,26.21
2022-08-07T08:20:40.597Z,26.63
2022-08-07T08:30:51.098Z,26.29
2022-08-07T08:41:15.734Z,26.40
2022-08-07T08:52:12.893Z,26.16
2022-08-07T09:02:34.586Z,26.00
2022-08-07T09:12:43.025Z,25.80
2022-08-07T09:24:30.717Z,24.48
2022-08-07T09:33:53.026Z,23.97
2022-08-07T09:44:32.950Z,24.24
2022-08-07T09:54:47.581Z,24.93
2022-08-07T10:05:58.924Z,24.46
2022-08-07T10:16:16.383Z,24.60
2022-08-07T10:26:42.020Z,24.61
2022-08-07T10:37:04.828Z,25.02
2022-08-07T10:47:52.582Z,24.20
2022-08-07T10:57:56.429Z,24.57
2022-08-07T11:08:16.543Z,25.13
2022-08-07T11:18:34.897Z,23.65
2022-08-07T11:28:53.415Z,23.21
2022-08-07T11:39:07.001Z,23.07
2022-08-07T11:49:50.606Z,24.21
2022-08-07T12:00:12.045Z,23.19
2022-08-07T12:10:17.435Z,24.60
2022-08-07T12:20:46.415Z,24.23
2022-08-07T12:30:54.161Z,23.63
2022-08-07T12:40:59.261Z,23.88
2022-08-07T12:51:17.149Z,24.06
2022-08-07T13:01:32.338Z,23.17
2022-08-07T13:12:03.107Z,23.47
2022-08-07T13:22:28.111Z,23.09
2022-08-07T13:32:40.829Z,23.81
2022-08-07T13:42:44.009Z,22.38
2022-08-07T13:52:48.575Z,23.04
2022-08-07T14:02:54.137Z,23.35
2022-08-07T14:13:00.578Z,23.31
2022-08-07T14:23:11.123Z,23.12
2022-08-07T14:33:14.992Z,23.27
2022-08-07T14:43:55.428Z,23.63
2022-08-07T15:04:06.182Z,23.27
2022-08-07T15:14:12.403Z,23.26
2022-08-07T15:25:14.758Z,22.29
2022-08-07T15:56:02.557Z,21.75
2022-08-07T16:06:09.472Z,21.64
2022-08-07T16:16:43.247Z,21.83
2022-08-07T16:26:59.568Z,21.15
2022-08-07T16:38:04.710Z,20.80
2022-08-07T16:48:13.654Z,20.68
2022-08-07T16:58:19.483Z,20.79
2022-08-07T17:08:57.222Z,20.69
2022-08-07T17:19:03.773Z,20.67
2022-08-07T17:29:18.382Z,20.41
2022-08-07T17:39:57.753Z,20.13
2022-08-07T17:50:16.713Z,19.77
2022-08-07T18:00:33.389Z,19.67
2022-08-07T18:12:06.542Z,19.51
2022-08-07T18:21:37.355Z,19.51
2022-08-07T18:32:16.901Z,19.22
2022-08-07T18:42:29.031Z,19.15
2022-08-07T18:53:05.758Z,18.70
2022-08-07T19:03:35.443Z,18.48
2022-08-07T19:14:17.156Z,18.24
2022-08-07T19:24:30.845Z,18.15
2022-08-07T19:34:38.458Z,17.93
2022-08-07T19:44:43.007Z,17.69
2022-08-07T19:54:56.165Z,17.29
2022-08-07T20:05:02.633Z,16.88
2022-08-07T20:15:18.834Z,16.65
2022-08-07T20:25:23.988Z,16.59
2022-08-07T20:35:32.416Z,16.34
2022-08-07T20:46:26.720Z,16.15
2022-08-07T20:56:01.164Z,15.94
2022-08-07T21:06:21.452Z,15.74
2022-08-07T21:16:33.445Z,15.63
2022-08-07T21:26:58.696Z,15.56
2022-08-07T21:37:11.228Z,15.33
2022-08-07T21:47:37.623Z,15.05
2022-08-07T21:57:52.216Z,14.88
2022-08-07T22:07:59.369Z,14.76
2022-08-07T22:18:11.481Z,14.54
2022-08-07T22:28:41.385Z,14.34
2022-08-07T22:39:04.765Z,13.85
2022-08-07T22:49:15.841Z,13.90
2022-08-07T23:00:02.563Z,13.67
2022-08-07T23:10:36.433Z,13.58
2022-08-07T23:20:53.248Z,13.45
2022-08-07T23:31:05.719Z,13.22
2022-08-07T23:41:14.662Z,13.12
2022-08-07T23:53:05.949Z,13.23
